Weather reports worldwide

Advertisment
Feldberg/Schwarzwald, Germany (10908): temperature & dewpoint: 14.06.2019 06:00:00 - 20.06.2019 06:00:00 (CEST)Feldberg/Schwarzwald, Germany (10908): temperature 5cm & temperature -5cm: 14.06.2019 06:00:00 - 20.06.2019 06:00:00 (CEST)Feldberg/Schwarzwald, Germany (10908): temperature -20cm & temperature -100cm: 14.06.2019 06:00:00 - 20.06.2019 06:00:00 (CEST)Feldberg/Schwarzwald, Germany (10908): wind speed & gusts: 14.06.2019 06:00:00 - 20.06.2019 06:00:00 (CEST)Feldberg/Schwarzwald, Germany (10908): wind direction: 14.06.2019 06:00:00 - 20.06.2019 06:00:00 (CEST)Feldberg/Schwarzwald, Germany (10908): visibility: 14.06.2019 06:00:00 - 20.06.2019 06:00:00 (CEST)Feldberg/Schwarzwald, Germany (10908): sunshine duration: 14.06.2019 06:00:00 - 20.06.2019 06:00:00 (CEST)Feldberg/Schwarzwald, Germany (10908): precipitation: 14.06.2019 06:00:00 - 20.06.2019 06:00:00 (CEST)
Date & Time tt [°C] td [°C] tt 5cm [°C] tt -5cm [°C] tt -20cm [°C] tt -100cm [°C] ff [km/h] ff [kn] fx [km/h] fx [kn] dd vv [km] sd [min] rr [mm]
20.06.2019 06:00:00 10,3 7,5 9,1 11,7 15,0 7,9 44 24 51 28 SW 65 0 0,5
20.06.2019 05:00:00 10,5 7,2 9,0 12,2 15,3 7,9 28 15 75 41 WSW 18 0 6,6
20.06.2019 04:00:00 10,0 9,7 10,1 13,4 15,6 7,8 59 32 81 44 SSW 0,2 0 3,0
20.06.2019 03:00:00 12,2 8,4 11,6 14,0 15,9 7,8 28 15 36 19 SW 57 0 0,0
20.06.2019 02:00:00 12,9 8,1 12,0 14,5 16,2 7,8 19 10 34 18 SW 60 0 0,0
20.06.2019 01:00:00 13,4 9,1 11,8 15,0 16,5 7,8 27 15 40 21 WSW 48 0 0,0
20.06.2019 00:00:00 14,4 7,8 12,7 15,8 16,8 7,8 31 17 51 28 WSW 44 0 0,0
19.06.2019 23:00:00 14,8 7,8 13,3 16,8 17,0 7,8 35 19 45 24 SW 58 0 0,0
19.06.2019 22:00:00 15,4 7,8 13,7 18,1 17,1 7,8 35 19 43 23 SW 55 1 0,0
19.06.2019 21:00:00 16,0 7,4 14,4 20,1 17,1 7,8 18 10 25 14 W 53 24 0,0
19.06.2019 20:00:00 17,2 7,3 16,2 22,0 16,9 7,8 16 8 24 13 WNW 51 51 0,0
19.06.2019 19:00:00 18,3 7,3 18,0 24,3 16,5 7,8 26 14 32 18 SSW 64 60 0,0
19.06.2019 18:00:00 18,7 9,4 22,0 25,8 16,1 7,8 21 11 34 18 SSW 60 55 0,0
19.06.2019 17:00:00 17,9 8,4 21,5 25,2 15,7 7,8 21 11 31 17 SSW 48 36 0,0
19.06.2019 16:00:00 17,4 8,8 18,7 25,5 15,2 7,8 14 8 35 19 SSW 56 13 0,0
19.06.2019 15:00:00 17,9 8,1 21,7 26,3 14,6 7,8 27 15 51 28 SSW 50 58 0,0
19.06.2019 14:00:00 17,8 8,4 21,9 25,5 14,0 7,7 37 20 50 27 SSW 39 56 0,0
19.06.2019 13:00:00 17,1 9,2 21,1 24,1 13,6 7,7 32 17 46 25 SSW 60 60 0,0
19.06.2019 12:00:00 16,9 8,2 20,8 22,2 13,2 7,7 23 12 38 21 SSW 56 60 0,0
19.06.2019 11:00:00 17,0 9,5 20,4 19,0 13,1 7,7 11 6 40 22 W 52 60 0,0
19.06.2019 10:00:00 16,6 6,5 18,9 16,2 13,1 7,7 24 13 43 23 SSW 65 60 0,0
19.06.2019 09:00:00 16,6 4,7 17,5 14,0 13,2 7,7 21 11 32 17 SW 68 60 0,0
19.06.2019 08:00:00 16,2 4,0 15,3 12,1 13,4 7,7 25 13 29 16 SW 69 60 0,0
19.06.2019 07:00:00 15,7 3,2 12,7 11,2 13,7 7,7 27 14 37 20 SW 62 46 0,0
19.06.2019 06:00:00 15,2 7,2 12,1 11,1 13,9 7,7 30 16 35 19 SW 70 0 0,0
19.06.2019 05:00:00 15,6 6,6 12,0 11,4 14,2 7,7 29 16 33 18 SSW 61 0 0,0
19.06.2019 04:00:00 15,2 6,7 11,6 11,8 14,5 7,7 26 14 35 19 SSW 66 0 0,0
19.06.2019 03:00:00 15,4 6,6 12,1 12,4 14,8 7,7 26 14 33 18 S 64 0 0,0
19.06.2019 02:00:00 15,0 7,2 12,8 13,2 15,1 7,7 23 13 34 18 S 75 0 0,0
19.06.2019 01:00:00 14,8 8,4 13,0 13,8 15,3 7,7 21 11 26 14 S 49 0 0,0
19.06.2019 00:00:00 14,9 9,5 12,9 14,5 15,6 7,7 19 10 28 15 S 55 0 0,0
18.06.2019 23:00:00 14,8 10,2 12,1 15,6 15,8 7,7 21 12 27 15 SSE 51 0 0,0
18.06.2019 22:00:00 15,6 10,9 12,7 17,0 15,9 7,7 19 10 21 12 ESE 48 0 0,0
18.06.2019 21:00:00 16,5 6,5 14,4 18,7 15,9 7,7 6 4 7 4 S 62 0 0,0
18.06.2019 20:00:00 16,9 6,7 16,4 19,8 15,8 7,6 6 3 22 12 W 75 23 0,0
18.06.2019 19:00:00 17,3 6,1 17,6 21,1 15,6 7,6 16 9 23 12 WNW 63 52 0,0
18.06.2019 18:00:00 16,9 4,7 17,5 22,1 15,3 7,6 14 8 31 17 W 50 2 0,0
18.06.2019 17:00:00 17,2 6,9 17,5 24,0 14,8 7,6 21 12 29 16 WNW 62 26 0,0
18.06.2019 16:00:00 18,6 8,5 20,5 25,3 14,3 7,6 11 6 28 15 W 68 56 0,0
18.06.2019 15:00:00 17,8 12,2 22,2 24,1 13,7 7,6 15 8 34 18 SSW 63 58 0,0
18.06.2019 14:00:00 17,7 3,9 21,3 23,6 13,2 7,6 21 11 35 19 SSW 46 60 0,0
18.06.2019 13:00:00 17,5 6,5 21,9 23,0 12,7 7,6 20 11 27 15 SSW 74 60 0,0
18.06.2019 12:00:00 17,0 5,0 21,4 22,0 12,2 7,6 16 9 23 13 S 65 60 0,0
18.06.2019 11:00:00 16,3 9,2 20,5 20,0 11,9 7,6 10 5 16 9 S 29 60 0,0
18.06.2019 10:00:00 15,6 9,2 18,7 17,1 11,8 7,6 6 3 11 6 SSW 49 60 0,0
18.06.2019 09:00:00 15,8 8,2 17,3 13,9 11,9 7,6 4 2 8 4 SSW 57 60 0,0
18.06.2019 08:00:00 15,5 4,3 14,6 10,9 12,1 7,6 4 2 13 7 WNW 64 60 0,0
18.06.2019 07:00:00 14,6 3,4 11,1 9,2 12,4 7,6 10 6 14 8 WSW 60 55 0,0
18.06.2019 06:00:00 14,2 4,6 8,2 9,1 12,6 7,6 12 7 17 9 W 75 0 0,0
18.06.2019 05:00:00 14,2 5,3 8,0 9,6 12,9 7,6 15 8 18 10 SW 64 0 0,0
18.06.2019 04:00:00 13,1 10,2 9,3 10,3 13,2 7,6 11 6 16 8 S 30 0 0,0
18.06.2019 03:00:00 13,1 10,2 9,2 10,9 13,5 7,6 14 8 24 13 SE 24 0 0,0
18.06.2019 02:00:00 12,8 10,2 9,6 11,5 13,8 7,6 19 11 29 16 SE 27 0 0,0
18.06.2019 01:00:00 12,9 10,1 9,9 12,2 14,1 7,6 24 13 31 17 ESE 30 0 0,0
18.06.2019 00:00:00 12,8 10,0 10,2 13,1 14,3 7,6 25 14 33 18 ESE 32 0 0,0
17.06.2019 23:00:00 13,1 10,2 10,7 14,1 14,4 7,6 26 14 31 17 ESE 35 0 0,0
17.06.2019 22:00:00 13,5 10,1 10,9 15,8 14,5 7,6 26 14 29 16 ESE 42 0 0,0
17.06.2019 21:00:00 14,1 10,3 12,1 17,7 14,3 7,6 12 6 17 9 E 54 0 0,0
17.06.2019 20:00:00 15,2 9,9 15,2 19,6 14,0 7,6 12 6 16 9 E 49 1 0,0
17.06.2019 19:00:00 15,8 11,1 16,9 21,3 13,6 7,6 5 3 15 8 NNE 43 24 0,0
17.06.2019 18:00:00 17,4 11,0 19,7 22,3 13,1 7,6 5 3 15 8 NNE 47 36 0,0
17.06.2019 17:00:00 17,1 6,5 22,8 23,2 12,5 7,5 10 5 25 14 E 75 60 0,0
17.06.2019 16:00:00 16,4 7,0 22,2 22,5 12,0 7,5 10 6 29 16 ESE 39 60 0,0
17.06.2019 15:00:00 15,3 7,0 21,4 21,3 11,4 7,5 13 7 36 19 E 74 60 0,0
17.06.2019 14:00:00 14,2 5,6 20,0 19,5 11,0 7,5 22 12 39 21 E 75 60 0,0
17.06.2019 13:00:00 14,0 6,9 19,0 17,9 10,7 7,5 24 13 46 25 E 75 60 0,0
17.06.2019 12:00:00 12,4 5,9 17,3 15,7 10,5 7,5 27 14 50 27 E 73 60 0,0
17.06.2019 11:00:00 11,0 5,3 14,8 13,7 10,3 7,5 38 20 61 33 E 66 60 0,0
17.06.2019 10:00:00 10,9 6,3 13,4 12,1 10,3 7,5 38 20 57 31 ENE 74 60 0,0
17.06.2019 09:00:00 9,3 5,4 11,4 10,4 10,4 7,5 37 20 50 27 E 51 60 0,0
17.06.2019 08:00:00 8,8 5,7 8,8 8,9 10,5 7,5 42 23 53 29 E 72 60 0,0
17.06.2019 07:00:00 9,3 4,8 7,2 8,1 10,7 7,5 39 21 49 26 E 68 56 0,0
17.06.2019 06:00:00 8,7 5,6 6,6 8,1 10,9 7,5 41 22 49 26 E 50 0 0,0
17.06.2019 05:00:00 7,9 7,6 7,3 8,3 11,1 7,5 40 21 48 26 E 0,2 0 0,0
17.06.2019 04:00:00 8,4 7,7 7,3 8,7 11,3 7,5 35 19 43 23 E 13 0 0,0
17.06.2019 03:00:00 8,3 8,1 7,7 9,2 11,5 7,5 33 18 45 24 E 0,3 0 0,0
17.06.2019 02:00:00 8,7 8,5 8,6 9,4 11,7 7,5 34 18 44 24 E 0,1 0 0,0
17.06.2019 01:00:00 8,9 8,7 8,7 9,6 11,9 7,5 34 19 42 23 E 0,1 0 0,0
17.06.2019 00:00:00 9,1 8,4 7,9 10,1 12,1 7,4 32 18 39 21 E 16 0 0,0
16.06.2019 23:00:00 9,6 7,7 8,1 10,7 12,2 7,4 30 16 35 19 E 38 0 0,0
16.06.2019 22:00:00 9,6 7,7 7,5 11,9 12,2 7,4 17 9 20 11 NE 35 6 0,0
16.06.2019 21:00:00 10,2 8,2 10,3 13,3 12,2 7,4 11 6 14 7 NNE 39 60 0,0
16.06.2019 20:00:00 10,8 7,9 11,3 14,3 12,1 7,4 8 4 13 7 N 49 40 0,0
16.06.2019 19:00:00 11,0 8,1 12,3 14,7 11,9 7,4 8 5 17 9 NE 59 3 0,0
16.06.2019 18:00:00 10,0 5,9 13,6 15,4 11,7 7,4 9 5 19 10 NNE 75 4 0,0
16.06.2019 17:00:00 9,7 6,1 11,9 16,1 11,4 7,4 9 5 17 9 N 60 7 0,0
16.06.2019 16:00:00 9,2 7,2 11,7 15,9 11,2 7,4 10 5 18 10 N 59 0 0,0
16.06.2019 15:00:00 9,3 7,7 13,1 15,1 10,9 7,4 9 5 15 8 N 32 1 0,0
16.06.2019 14:00:00 8,1 6,8 10,6 14,7 10,8 7,4 9 5 15 8 N 40 2 0,0
16.06.2019 13:00:00 7,8 7,6 9,9 12,7 10,7 7,4 5 3 15 8 N 8 0 0,0
16.06.2019 12:00:00 7,3 7,0 9,6 11,6 10,7 7,4 10 5 21 11 NNE 0,1 0 0,0
16.06.2019 11:00:00 7,0 7,0 8,3 10,7 10,8 7,3 14 8 24 13 N 0,1 0 0,0
16.06.2019 10:00:00 6,5 6,3 7,9 9,8 10,9 7,3 21 11 30 16 N 0,1 0 0,0
16.06.2019 09:00:00 6,3 6,2 7,1 9,1 11,0 7,3 20 11 31 17 N - 0 0,0
16.06.2019 08:00:00 5,8 5,7 6,4 9,0 11,2 7,3 21 12 39 21 N - 0 0,7
16.06.2019 07:00:00 6,6 6,5 7,0 9,2 11,4 7,3 19 10 29 16 NNW 0,1 0 2,9
16.06.2019 06:00:00 7,1 7,1 7,4 9,4 11,5 7,3 19 11 29 15 N - 0 1,2
16.06.2019 05:00:00 7,5 7,4 7,8 9,6 11,8 7,3 16 8 24 13 NW 0,1 0 3,9
16.06.2019 04:00:00 7,5 7,5 7,8 9,8 12,0 7,3 12 6 14 8 WNW 0,1 0 0,3
16.06.2019 03:00:00 7,0 7,0 7,4 9,9 12,2 7,3 12 6 35 19 N 0,1 0 2,3
16.06.2019 02:00:00 8,0 8,0 8,2 10,4 12,5 7,2 24 13 40 21 NW 0,1 0 7,1
16.06.2019 01:00:00 8,3 8,3 8,7 10,9 12,7 7,2 31 17 46 25 WSW 0,1 0 1,4
16.06.2019 00:00:00 8,7 8,6 8,9 11,3 12,9 7,2 29 16 44 24 SW 0,1 0 8,6
15.06.2019 23:00:00 9,3 9,3 9,6 12,1 13,1 7,2 23 12 37 20 SSW 0,1 0 6,5
15.06.2019 22:00:00 9,3 8,8 9,4 12,9 13,2 7,2 5 3 18 10 S 0,1 0 6,3
15.06.2019 21:00:00 9,8 9,0 9,6 14,1 13,2 7,2 16 8 26 14 NW 15 0 1,1
15.06.2019 20:00:00 10,5 8,7 10,3 15,4 13,1 7,2 18 10 26 14 N 40 0 0,0
15.06.2019 19:00:00 11,0 8,3 11,6 17,0 12,9 7,2 20 11 31 17 NW 50 13 0,0
15.06.2019 18:00:00 11,0 9,0 13,2 17,7 12,7 7,2 21 11 29 16 N 37 15 0,0
15.06.2019 17:00:00 11,2 9,1 14,8 18,5 12,3 7,2 18 10 27 15 N 41 2 0,0
15.06.2019 16:00:00 11,4 9,3 13,1 19,4 11,9 7,2 16 9 24 13 N 52 8 0,0
15.06.2019 15:00:00 11,0 9,5 14,1 19,5 11,5 7,2 16 9 23 13 NNE 32 11 0,0
15.06.2019 14:00:00 12,7 9,4 17,9 18,9 11,3 7,2 13 7 24 13 WNW 71 56 0,0
15.06.2019 13:00:00 10,5 7,8 16,9 15,1 11,2 7,2 12 6 34 18 WNW 58 10 0,0
15.06.2019 12:00:00 9,4 7,1 13,3 12,6 11,2 7,2 22 12 53 28 W 59 0 0,0
15.06.2019 11:00:00 8,3 7,7 11,4 11,5 11,3 7,2 41 22 61 33 SSW 0,3 0 0,0
15.06.2019 10:00:00 8,7 8,5 10,1 11,2 11,4 7,2 36 19 56 30 SW 0,1 1 0,0
15.06.2019 09:00:00 8,4 8,0 9,6 11,0 11,5 7,2 42 23 60 33 SW 75 3 0,0
15.06.2019 08:00:00 8,6 8,6 9,3 10,8 11,6 7,2 51 27 64 35 SW 0,1 2 0,1
15.06.2019 07:00:00 9,0 8,8 9,2 10,7 11,7 7,2 45 25 70 38 WSW 49 11 0,0
15.06.2019 06:00:00 9,3 8,7 9,1 10,9 11,9 7,2 46 25 77 42 SW 69 0 0,0
15.06.2019 05:00:00 9,8 9,7 10,0 11,2 12,0 7,2 39 21 68 37 SW - 0 0,0
15.06.2019 04:00:00 11,4 9,3 10,2 11,3 12,1 7,2 36 20 57 31 SSW 30 0 0,0
15.06.2019 03:00:00 15,5 6,4 13,7 11,8 12,3 7,2 32 17 61 33 S 55 0 0,0
15.06.2019 02:00:00 15,5 6,4 14,1 12,1 12,4 7,2 52 28 69 37 SE 55 0 0,0
15.06.2019 01:00:00 15,1 7,4 13,1 12,6 12,5 7,2 54 29 69 37 ESE 51 0 0,0
15.06.2019 00:00:00 15,4 8,0 14,1 12,9 12,6 7,2 51 28 63 34 ESE 55 0 0,0
14.06.2019 23:00:00 14,4 8,9 13,3 13,3 12,7 7,2 54 29 74 40 ESE 50 0 0,0
14.06.2019 22:00:00 14,8 8,3 13,3 13,9 12,7 7,2 60 33 72 39 E 59 0 0,0
14.06.2019 21:00:00 14,2 9,1 13,1 15,1 12,5 7,2 57 31 74 40 E 52 0 0,0
14.06.2019 20:00:00 15,1 9,6 14,7 16,9 12,3 7,2 50 27 64 35 ENE 53 37 0,0
14.06.2019 19:00:00 15,6 9,3 16,8 18,4 11,9 7,2 28 15 47 25 ENE 45 60 0,0
14.06.2019 18:00:00 14,9 9,9 17,9 18,9 11,6 7,2 13 7 23 12 N 64 60 0,0
14.06.2019 17:00:00 15,4 9,6 19,7 17,8 11,3 7,2 9 5 32 17 N 54 41 0,0
14.06.2019 16:00:00 14,5 8,9 18,1 16,3 11,0 7,1 10 5 29 15 N 49 13 0,0
14.06.2019 15:00:00 13,5 8,6 14,0 15,6 10,8 7,1 15 8 42 23 N 39 3 0,0
14.06.2019 14:00:00 14,1 7,0 16,0 15,5 10,6 7,1 27 15 40 22 SW 75 1 0,0
14.06.2019 13:00:00 13,5 6,2 16,2 14,1 10,4 7,1 21 11 47 26 SSW 66 9 0,0
14.06.2019 12:00:00 12,9 7,6 14,7 12,4 10,4 7,1 44 24 62 34 SSW 41 5 0,0
14.06.2019 11:00:00 14,0 5,0 13,6 11,4 10,3 7,1 45 25 63 34 SSW 55 0 0,0
14.06.2019 10:00:00 14,8 3,9 14,2 11,3 10,3 7,1 32 17 50 27 SSW 57 0 0,0
14.06.2019 09:00:00 14,1 1,2 13,0 10,3 10,4 7,1 18 10 36 20 SE 68 2 0,0
14.06.2019 08:00:00 14,3 1,5 13,1 9,3 10,5 7,1 30 16 - - ESE 60 57 0,0
14.06.2019 07:00:00 13,5 2,4 11,2 8,5 10,7 7,1 32 17 37 20 ESE 75 47 0,0
14.06.2019 06:00:00 11,4 6,3 8,9 8,3 10,9 7,1 34 18 39 21 ESE 56 0 0,0

tt = temperature
td = dewpoint
tt 5cm = temperature 5cm
tt -5cm = temperature -5cm
tt -20cm = temperature -20cm
tt -100cm = temperature -100cm
ff = wind speed
fx = gusts
dd = wind direction
vv = visibility
sd = sunshine duration
rr = precipitation

Next stations